Thunder radar more information blitzortung!


Radar de pluja more information rain snow radar


Visita la nostra xarxa de llocs de meteo:

Template documentation
and downloads

And another site



No particular awareness of the weather is required.    There are no Weather-warnings

Pagina Historial Weather Underground text

Diari Resum Octubre 24, 2017 Unitats:  Imperial    Mètric   Tant
« Previous Dia
SegĂźent Dia »
Diari Setmana Mensual Anual Personalitzada
  Maxima: Minima: Media:
Temperatura: 76.5 °F 49.3 °F 63.5 °F
Punt de rosada: 52.9 °F 41.4 °F 47.3 °F
Humitat: 75 % 42 % 57 %
Wind Speed: 6.9 mph 0 mph 2 mph
RĂ fegues de vent: 6.9 mph - -
Vent:- - SSW
Pression baro: 30.3 in 30.2 in -
Precipitacions: 0 in    
Historical Graphs
 
 
Dades de taula per Octubre 24, 2017
Temps Temperatura Punt de rosada Pression baro Vent Wind Speed RĂ fegues de vent Humitat Rainfall Rate (Hourly)
00:04 55.4 °F 42.6 °F 30.2 in WSW 1.2 mph 1.2 mph 62 % 0 in
00:05 50.7 °F 42.4 °F 30.2 in WSW 1 mph 2 mph 73 % 0 in
00:09 55.2 °F 42.8 °F 30.2 in Calm     63 % 0 in
00:15 50.7 °F 42.6 °F 30.2 in Calm   2 mph 74 % 0 in
00:25 50.7 °F 42.6 °F 30.2 in Calm     74 % 0 in
00:35 50.7 °F 42.6 °F 30.2 in Calm   2 mph 74 % 0 in
00:45 50.7 °F 42.6 °F 30.2 in Calm   1 mph 74 % 0 in
00:55 50.7 °F 42.6 °F 30.2 in WNW 1 mph 1 mph 74 % 0 in
01:05 49.6 °F 41.7 °F 30.2 in WSW 2 mph 2 mph 74 % 0 in
01:15 49.6 °F 41.7 °F 30.2 in SW 1 mph 2 mph 74 % 0 in
01:25 49.8 °F 42.3 °F 30.2 in SW 1 mph 1 mph 75 % 0 in
01:35 50.2 °F 42.3 °F 30.2 in WSW 1 mph 3 mph 74 % 0 in
01:55 50.4 °F 42.4 °F 30.2 in West 1 mph 2 mph 74 % 0 in
02:05 49.3 °F 41.4 °F 30.2 in WSW 2 mph 3 mph 74 % 0 in
02:15 49.6 °F 42.1 °F 30.2 in WSW 1 mph 2 mph 75 % 0 in
02:25 50.2 °F 42.6 °F 30.2 in Calm   2 mph 75 % 0 in
02:35 50.7 °F 43.2 °F 30.2 in West 1 mph 2 mph 75 % 0 in
02:45 50.7 °F 43.2 °F 30.2 in West 1 mph 1 mph 75 % 0 in
02:55 50.2 °F 42.6 °F 30.2 in Calm   1 mph 75 % 0 in
03:05 50.2 °F 42.6 °F 30.2 in Calm     75 % 0 in
03:15 50.5 °F 43 °F 30.2 in Calm   2 mph 75 % 0 in
03:25 50.9 °F 43.3 °F 30.2 in Calm   2 mph 75 % 0 in
03:35 50.5 °F 43 °F 30.2 in WNW 1 mph 1 mph 75 % 0 in
03:45 50.9 °F 43.3 °F 30.2 in Calm   2 mph 75 % 0 in
03:55 51.6 °F 44.1 °F 30.2 in West 1 mph 2 mph 75 % 0 in
04:05 52.3 °F 44.6 °F 30.3 in West 1 mph 2 mph 75 % 0 in
04:15 53.4 °F 45.3 °F 30.3 in WNW 1 mph 2 mph 74 % 0 in
04:25 54.1 °F 46 °F 30.3 in Calm   1 mph 74 % 0 in
04:35 55 °F 46.6 °F 30.3 in Calm   3 mph 73 % 0 in
04:45 55.6 °F 46.8 °F 30.3 in Calm   2 mph 72 % 0 in
04:55 56.3 °F 46.9 °F 30.3 in Calm   2 mph 71 % 0 in
05:05 57.2 °F 47.1 °F 30.3 in Calm   2 mph 69 % 0 in
05:15 58.1 °F 48 °F 30.3 in Calm   2 mph 69 % 0 in
10:16 58.3 °F 47.8 °F 30.3 in NNW 3.5 mph 3.5 mph 68 % 0 in
10:17 58.3 °F 47.8 °F 30.3 in NW 2.3 mph 2.3 mph 68 % 0 in
10:22 58.6 °F 47.7 °F 30.3 in ENE 2.3 mph 2.3 mph 67 % 0 in
10:27 59.2 °F 48.2 °F 30.3 in NW 2.3 mph 2.3 mph 67 % 0 in
10:32 59.7 °F 48.7 °F 30.3 in WSW 1.6 mph   67 % 0 in
10:37 60.8 °F 49.5 °F 30.3 in Calm     66 % 0 in
10:42 60.8 °F 48.9 °F 30.3 in NW 2.3 mph 2.3 mph 65 % 0 in
10:43 60.8 °F 48.9 °F 30.3 in NW 2.3 mph   65 % 0 in
10:48 61.3 °F 49.5 °F 30.3 in NNW 1.2 mph 1.2 mph 65 % 0 in
10:53 61.7 °F 49.5 °F 30.3 in NE 2.3 mph 2.3 mph 64 % 0 in
10:58 61.9 °F 49.6 °F 30.3 in WNW 2.3 mph 2.3 mph 64 % 0 in
11:03 62.4 °F 49.6 °F 30.3 in North 1.2 mph 1.2 mph 63 % 0 in
11:08 62.6 °F 48.9 °F 30.3 in ENE 3.5 mph 3.5 mph 61 % 0 in
11:18 63 °F 49.3 °F 30.3 in NE 3.8 mph 3.8 mph 61 % 0 in
11:23 63.5 °F 49.5 °F 30.3 in ENE 2.3 mph 2.3 mph 60 % 0 in
11:28 64.2 °F 50 °F 30.3 in NNE 2.3 mph 2.3 mph 60 % 0 in
11:33 64.6 °F 49.8 °F 30.3 in East 4.6 mph 4.6 mph 59 % 0 in
11:38 64.2 °F 49.1 °F 30.3 in NE 5.8 mph 5.8 mph 58 % 0 in
11:43 64.4 °F 49.3 °F 30.3 in NNE 5.8 mph 5.8 mph 58 % 0 in
11:48 64.2 °F 48.7 °F 30.3 in NNE 4.6 mph 4.6 mph 57 % 0 in
11:53 64.4 °F 48.7 °F 30.3 in NE 4.6 mph 4.6 mph 57 % 0 in
11:58 64.9 °F 49.3 °F 30.3 in NNE 6.9 mph 6.9 mph 57 % 0 in
12:03 65.3 °F 49.3 °F 30.3 in East 2.6 mph 2.6 mph 56 % 0 in
12:08 65.8 °F 49.3 °F 30.3 in NW 4.6 mph 4.6 mph 55 % 0 in
12:13 65.8 °F 49.3 °F 30.3 in NNE 5.8 mph 5.8 mph 55 % 0 in
12:18 66.2 °F 49.1 °F 30.3 in ENE 5.4 mph 5.4 mph 54 % 0 in
12:23 65.7 °F 48.6 °F 30.3 in ENE 4.6 mph 4.6 mph 54 % 0 in
12:28 66.2 °F 48.6 °F 30.3 in NNW 3.5 mph 3.5 mph 53 % 0 in
12:33 66.2 °F 48.6 °F 30.3 in NNE 5.8 mph 5.8 mph 53 % 0 in
12:38 67.1 °F 49.5 °F 30.3 in NE 3.8 mph 3.8 mph 53 % 0 in
12:43 67.5 °F 49.6 °F 30.3 in NNE 2.3 mph 2.3 mph 53 % 0 in
12:48 67.6 °F 49.5 °F 30.3 in ENE 4.6 mph 4.6 mph 52 % 0 in
12:53 67.3 °F 48.6 °F 30.3 in NE 3.5 mph 3.5 mph 51 % 0 in
12:58 67.5 °F 48.7 °F 30.2 in NNE 3.8 mph 3.8 mph 51 % 0 in
13:03 68.2 °F 49.5 °F 30.2 in NNE 4.6 mph 4.6 mph 51 % 0 in
13:08 68.4 °F 48.9 °F 30.2 in ESE 2.3 mph 2.3 mph 50 % 0 in
13:13 68.5 °F 49.3 °F 30.2 in ENE 2.3 mph 2.3 mph 50 % 0 in
13:18 69.4 °F 50 °F 30.2 in Calm     50 % 0 in
13:23 70.3 °F 50.7 °F 30.2 in SE 3.5 mph 3.5 mph 50 % 0 in
13:28 70.2 °F 50.2 °F 30.2 in SE 2.9 mph 2.9 mph 49 % 0 in
13:33 69.8 °F 49.3 °F 30.2 in ESE 3.5 mph 3.5 mph 48 % 0 in
13:38 70 °F 49.5 °F 30.2 in East 3.5 mph 3.5 mph 48 % 0 in
13:43 70 °F 49.5 °F 30.2 in East 2.4 mph 2.6 mph 48 % 0 in
13:48 70.5 °F 49.8 °F 30.2 in ENE 2.4 mph   48 % 0 in
13:53 70.3 °F 49.6 °F 30.2 in NNE 2.3 mph 2.3 mph 48 % 0 in
13:58 70.7 °F 50 °F 30.2 in ENE 2.6 mph 2.6 mph 48 % 0 in
14:03 70.9 °F 50.2 °F 30.2 in ENE 2.3 mph 2.3 mph 48 % 0 in
14:08 71.1 °F 50.4 °F 30.2 in NNE 2.3 mph 2.3 mph 48 % 0 in
14:13 71.4 °F 50.7 °F 30.2 in ENE 2.6 mph 2.6 mph 48 % 0 in
14:18 71.8 °F 51.1 °F 30.2 in WNW 2.3 mph 2.3 mph 48 % 0 in
14:23 72.1 °F 50.7 °F 30.2 in NW 1.2 mph 1.2 mph 47 % 0 in
14:28 72.1 °F 51.4 °F 30.2 in East 3.5 mph 3.5 mph 48 % 0 in
14:33 72.1 °F 50.7 °F 30.2 in ESE 2.4 mph 2.4 mph 47 % 0 in
14:38 72.1 °F 50.7 °F 30.2 in North 1.4 mph 1.4 mph 47 % 0 in
14:43 72.5 °F 50.5 °F 30.2 in ENE 4.6 mph 4.6 mph 46 % 0 in
14:48 72.7 °F 50.7 °F 30.2 in East 3.5 mph 3.5 mph 46 % 0 in
14:53 72.9 °F 50.9 °F 30.2 in ENE 3.5 mph 3.5 mph 46 % 0 in
14:58 73 °F 50.4 °F 30.2 in ESE 3.5 mph 3.5 mph 45 % 0 in
15:03 73.6 °F 50.9 °F 30.2 in South 2.3 mph 2.3 mph 45 % 0 in
15:08 73.9 °F 50.5 °F 30.2 in East 2.3 mph 2.3 mph 44 % 0 in
15:13 73.6 °F 49.6 °F 30.2 in SE 3.5 mph 3.5 mph 43 % 0 in
15:18 73.9 °F 50.5 °F 30.2 in SSE 3.8 mph 3.8 mph 44 % 0 in
15:23 74.5 °F 50.5 °F 30.2 in SW 1.2 mph   43 % 0 in
15:28 75.4 °F 52 °F 30.2 in SSE 2.3 mph   44 % 0 in
15:33 76.1 °F 52.5 °F 30.2 in West 3.5 mph 3.5 mph 44 % 0 in
15:38 76.3 °F 52.9 °F 30.2 in SW 4.6 mph 4.6 mph 44 % 0 in
15:43 75.7 °F 51.1 °F 30.2 in SSW 2.3 mph 2.3 mph 42 % 0 in
15:48 76.1 °F 52 °F 30.2 in WSW 2.9 mph 2.9 mph 43 % 0 in
15:53 76.5 °F 52.3 °F 30.2 in West 3.5 mph 3.5 mph 43 % 0 in
15:58 76.5 °F 52.3 °F 30.2 in SW 6 mph 6 mph 43 % 0 in
16:03 75.9 °F 51.3 °F 30.2 in SW 3.5 mph 3.5 mph 42 % 0 in
16:08 76.3 °F 52.2 °F 30.2 in WSW 3.6 mph 3.6 mph 43 % 0 in
16:13 76.3 °F 52.2 °F 30.2 in SW 3.5 mph 3.5 mph 43 % 0 in
16:18 75.9 °F 51.8 °F 30.2 in SW 5.8 mph 5.8 mph 43 % 0 in
16:21 75.7 °F 52.3 °F 30.2 in SSW 2.9 mph 2.9 mph 44 % 0 in
16:26 75.4 °F 52 °F 30.2 in SW 3.5 mph 3.5 mph 44 % 0 in
16:31 74.8 °F 51.4 °F 30.2 in SSW 5.8 mph 5.8 mph 44 % 0 in
16:36 75 °F 51.6 °F 30.2 in WSW 4.6 mph 4.6 mph 44 % 0 in
16:41 75 °F 51.6 °F 30.2 in SSW 6.9 mph 6.9 mph 44 % 0 in
16:46 75.2 °F 51.8 °F 30.2 in SSW 4.6 mph 4.6 mph 44 % 0 in
16:51 74.8 °F 51.4 °F 30.2 in WSW 5.8 mph 5.8 mph 44 % 0 in
16:56 74.8 °F 51.4 °F 30.2 in WSW 6.7 mph 6.7 mph 44 % 0 in
17:01 74.5 °F 50.5 °F 30.2 in SW 6.9 mph 6.9 mph 43 % 0 in
17:06 74.5 °F 51.1 °F 30.2 in SW 5.8 mph 5.8 mph 44 % 0 in
17:11 74.3 °F 50.4 °F 30.2 in WSW 5.8 mph 5.8 mph 43 % 0 in
17:16 74.7 °F 51.3 °F 30.2 in SW 4.6 mph 4.6 mph 44 % 0 in
17:21 74.7 °F 51.3 °F 30.2 in SW 5.8 mph 5.8 mph 44 % 0 in
17:26 74.3 °F 50.4 °F 30.2 in SW 4.6 mph 4.6 mph 43 % 0 in
17:31 74.3 °F 50.4 °F 30.2 in SSW 4 mph 4 mph 43 % 0 in
17:36 73.9 °F 50 °F 30.2 in WSW 5.8 mph 5.8 mph 43 % 0 in
17:41 73.6 °F 49.6 °F 30.2 in SW 3.5 mph 3.5 mph 43 % 0 in
17:44 73.6 °F 49.6 °F 30.2 in South 4.3 mph 4.3 mph 43 % 0 in
17:49 73.4 °F 49.5 °F 30.2 in SSW 3.5 mph 3.5 mph 43 % 0 in
17:54 73.2 °F 50 °F 30.2 in SW 2.3 mph 2.4 mph 44 % 0 in
17:59 73.2 °F 50 °F 30.2 in WSW 4.9 mph 4.9 mph 44 % 0 in
18:04 72.7 °F 49.5 °F 30.2 in SW 4.7 mph 4.7 mph 44 % 0 in
18:09 72.5 °F 49.3 °F 30.2 in WSW 4 mph 4 mph 44 % 0 in
18:14 72.3 °F 49.3 °F 30.2 in SW 2.3 mph 2.3 mph 44 % 0 in
18:19 72.1 °F 49.6 °F 30.2 in SSW 2.6 mph 2.6 mph 45 % 0 in
18:24 71.6 °F 49.1 °F 30.2 in SW 3.5 mph 3.5 mph 45 % 0 in
18:29 71.1 °F 48.6 °F 30.2 in SW 3.8 mph 3.8 mph 45 % 0 in
18:34 70.7 °F 48.4 °F 30.2 in WSW 2.6 mph 2.6 mph 45 % 0 in
18:39 70 °F 47.7 °F 30.2 in SW 4.6 mph 4.6 mph 45 % 0 in
18:44 69.6 °F 47.3 °F 30.2 in SSW 3.5 mph 3.5 mph 45 % 0 in
18:49 69.3 °F 47.7 °F 30.2 in WSW 2.3 mph 2.3 mph 46 % 0 in
18:54 68.9 °F 47.3 °F 30.2 in WSW 2 mph   46 % 0 in
18:59 68.5 °F 46.9 °F 30.2 in SW 2.3 mph 2.3 mph 46 % 0 in
19:04 68.2 °F 46.6 °F 30.2 in WSW 1.2 mph 1.2 mph 46 % 0 in
19:09 67.8 °F 46.2 °F 30.2 in WSW 2.4 mph   46 % 0 in
19:14 67.6 °F 46 °F 30.2 in SW 2.4 mph 2.4 mph 46 % 0 in
19:15 57.7 °F 45.7 °F 30.2 in Calm     64 % 0 in
19:19 67.5 °F 45.9 °F 30.2 in Calm     46 % 0 in
19:24 67.1 °F 46.2 °F 30.2 in Calm     47 % 0 in
19:25 57.7 °F 45.7 °F 30.2 in Calm   1 mph 64 % 0 in
19:29 66.7 °F 45.9 °F 30.2 in Calm     47 % 0 in
19:34 66.4 °F 45.5 °F 30.2 in Calm     47 % 0 in
19:35 58.1 °F 46 °F 30.2 in WNW 1 mph 2 mph 64 % 0 in
19:39 66.2 °F 45.3 °F 30.2 in Calm     47 % 0 in
19:44 66 °F 45.9 °F 30.2 in Calm     48 % 0 in
19:45 57.7 °F 45.7 °F 30.3 in WNW 1 mph 2 mph 64 % 0 in
19:49 65.7 °F 46 °F 30.2 in Calm     49 % 0 in
19:54 65.5 °F 45.9 °F 30.2 in Calm     49 % 0 in
19:55 57.4 °F 45.3 °F 30.3 in West 1 mph 2 mph 64 % 0 in
19:59 65.3 °F 45.7 °F 30.2 in Calm     49 % 0 in
20:04 65.1 °F 45.5 °F 30.2 in Calm     49 % 0 in
20:05 57.2 °F 45.1 °F 30.2 in WSW 1 mph 2 mph 64 % 0 in
20:09 64.9 °F 45.3 °F 30.2 in SW 1.2 mph   49 % 0 in
20:14 64.6 °F 45.5 °F 30.2 in WNW 1.2 mph 1.2 mph 50 % 0 in
20:15 57.2 °F 45.5 °F 30.3 in Calm   2 mph 65 % 0 in
20:19 64.2 °F 45.1 °F 30.2 in Calm     50 % 0 in
20:25 56.7 °F 45 °F 30.3 in SW 1 mph 1 mph 65 % 0 in
20:29 64.2 °F 45.1 °F 30.2 in Calm     50 % 0 in
20:34 64 °F 45 °F 30.2 in Calm     50 % 0 in
20:35 56.1 °F 45 °F 30.2 in SW 1 mph 2 mph 66 % 0 in
20:39 64 °F 45 °F 30.2 in Calm     50 % 0 in
20:44 63.9 °F 45 °F 30.2 in WNW 1.4 mph   50 % 0 in
20:45 55.8 °F 45 °F 30.3 in Calm   1 mph 67 % 0 in
20:49 63.5 °F 45 °F 30.2 in Calm     51 % 0 in
20:54 63.5 °F 45 °F 30.2 in WNW 1.2 mph   51 % 0 in
20:55 55.4 °F 44.6 °F 30.3 in Calm     67 % 0 in
20:59 63.3 °F 45 °F 30.2 in WNW 2 mph 2 mph 51 % 0 in
21:04 63 °F 44.4 °F 30.2 in Calm     51 % 0 in
21:05 55.2 °F 44.8 °F 30.2 in SW 1 mph 2 mph 68 % 0 in
21:09 62.8 °F 45 °F 30.2 in Calm     52 % 0 in
21:14 62.6 °F 44.8 °F 30.2 in West 2.3 mph 2.3 mph 52 % 0 in
21:15 55.4 °F 45 °F 30.2 in SW 1 mph 2 mph 68 % 0 in
21:19 62.4 °F 45.1 °F 30.2 in Calm     53 % 0 in
21:24 62.1 °F 44.8 °F 30.2 in Calm     53 % 0 in
21:25 55.4 °F 45.3 °F 30.2 in Calm   2 mph 69 % 0 in
21:29 61.9 °F 45 °F 30.2 in Calm     54 % 0 in
21:34 61.7 °F 45 °F 30.2 in Calm     54 % 0 in
21:35 55.4 °F 45 °F 30.2 in Calm   2 mph 68 % 0 in
21:39 61.5 °F 44.8 °F 30.2 in Calm     54 % 0 in
21:44 61.5 °F 44.8 °F 30.2 in Calm     54 % 0 in
21:45 55.8 °F 45.3 °F 30.2 in Calm   1 mph 68 % 0 in
21:49 61.3 °F 44.4 °F 30.2 in Calm     54 % 0 in
21:54 61.2 °F 45 °F 30.2 in Calm     55 % 0 in
21:55 55.6 °F 45.7 °F 30.2 in Calm     69 % 0 in
21:59 61.2 °F 45 °F 30.2 in Calm     55 % 0 in
22:04 61 °F 45.1 °F 30.2 in Calm     56 % 0 in
22:05 54.9 °F 44.4 °F 30.2 in WSW 2 mph 2 mph 68 % 0 in
22:09 60.8 °F 45 °F 30.2 in Calm     56 % 0 in
22:14 60.6 °F 45.3 °F 30.2 in Calm     57 % 0 in
22:15 54.5 °F 44.4 °F 30.2 in SW 1 mph 2 mph 69 % 0 in
22:19 60.4 °F 45.1 °F 30.2 in Calm     57 % 0 in
22:24 60.3 °F 45.3 °F 30.2 in Calm     58 % 0 in
22:25 54.5 °F 44.4 °F 30.2 in SW 2 mph 2 mph 69 % 0 in
22:29 60.3 °F 45.3 °F 30.2 in Calm     58 % 0 in
22:34 60.3 °F 45.3 °F 30.2 in West 1.2 mph 1.2 mph 58 % 0 in
22:35 54.1 °F 44.2 °F 30.2 in SW 1 mph 3 mph 69 % 0 in
22:39 60.4 °F 45.7 °F 30.2 in West 2.3 mph 2.3 mph 58 % 0 in
22:44 60.4 °F 45.7 °F 30.2 in Calm     58 % 0 in
22:45 54 °F 44.4 °F 30.2 in Calm     70 % 0 in
22:49 60.6 °F 45.9 °F 30.2 in West 1.2 mph   58 % 0 in
22:54 60.6 °F 46.2 °F 30.2 in SSW 1.2 mph   59 % 0 in
22:55 53.8 °F 44.6 °F 30.2 in SW 1 mph 2 mph 71 % 0 in
22:59 60.1 °F 45.7 °F 30.2 in WSW 2.3 mph 2.3 mph 59 % 0 in
23:04 59.9 °F 45.5 °F 30.2 in Calm     59 % 0 in
23:05 53.6 °F 44.4 °F 30.2 in SW 1 mph 2 mph 71 % 0 in
23:09 59.7 °F 45.9 °F 30.2 in Calm     60 % 0 in
23:14 59.5 °F 45.7 °F 30.2 in WSW 1.2 mph 1.2 mph 60 % 0 in
23:15 53.6 °F 44.4 °F 30.2 in Calm   2 mph 71 % 0 in
23:19 59.2 °F 45.7 °F 30.2 in Calm     61 % 0 in
23:24 59.2 °F 45.7 °F 30.2 in SW 2.3 mph 2.3 mph 61 % 0 in
23:25 53.6 °F 44.8 °F 30.2 in Calm     72 % 0 in
23:29 59.2 °F 45.7 °F 30.2 in Calm     61 % 0 in
23:34 59 °F 45.7 °F 30.2 in Calm     61 % 0 in
23:35 53.4 °F 45 °F 30.2 in Calm     73 % 0 in
23:39 59 °F 46 °F 30.2 in NNE 1.6 mph 1.6 mph 62 % 0 in
23:44 58.8 °F 45.9 °F 30.2 in NNE 2.3 mph   62 % 0 in
23:45 53.4 °F 45 °F 30.2 in Calm     73 % 0 in
23:49 58.6 °F 45.7 °F 30.2 in WNW 2 mph   62 % 0 in
23:54 58.5 °F 45.5 °F 30.2 in WNW 1.2 mph 1.2 mph 62 % 0 in
23:55 53.4 °F 44.6 °F 30.2 in SW 1 mph 2 mph 72 % 0 in
23:59 58.3 °F 45.7 °F 30.2 in WNW 1.6 mph 1.6 mph 63 % 0 in
Meteo Sesrovires
Elogis d' Weather Underground - 3.75 mb

Guio original per  Jim McMurry - jmcmurry@mwt.net Adaptat per a la plantilla per  Wim van der Kuil - Leuven-Template.eu

Trobareu la nostra informacio del temps tambe a:

Weather Underground

AWEKAS